Time;durP1;ratioP1;P1;durP2;ratioP2;P2;SDS_P1;SDS_P2;PMS_P1;PMS_P2;Temp;Humidity;BMP_temperature;BMP_pressure;BME280_temperature;BME280_humidity;BME280_pressure;Samples;Min_cycle;Max_cycle;Signal;HPM_P1;HPM_P2
2023/02/15 00:01:25;;;;;;;40.00;23.17;;;5.30;88.90;;;;;;5094460;28;20051;-90
2023/02/15 00:03:51;;;;;;;43.87;23.63;;;5.40;89.20;;;;;;5094188;28;20032;-91
2023/02/15 00:06:17;;;;;;;42.27;22.43;;;5.40;89.30;;;;;;5094959;28;20031;-91
2023/02/15 00:08:43;;;;;;;39.00;22.90;;;5.30;89.50;;;;;;5098683;28;20538;-91
2023/02/15 00:11:11;;;;;;;40.30;22.13;;;5.30;89.70;;;;;;5065845;28;20056;-91
2023/02/15 00:13:38;;;;;;;37.37;21.13;;;5.30;89.90;;;;;;5097632;28;20428;-92
2023/02/15 00:16:12;;;;;;;34.47;20.93;;;5.30;89.90;;;;;;5080945;28;20021;-91
2023/02/15 00:18:39;;;;;;;34.78;20.65;;;5.30;90.00;;;;;;5098299;28;20464;-90
2023/02/15 00:21:10;;;;;;;36.67;21.53;;;5.20;90.00;;;;;;5098100;28;20036;-91
2023/02/15 00:23:36;;;;;;;39.57;22.17;;;5.20;90.10;;;;;;5116139;28;20028;-92
2023/02/15 00:26:12;;;;;;;35.43;21.07;;;5.10;90.10;;;;;;5120077;28;20024;-91
2023/02/15 00:28:38;;;;;;;36.77;20.77;;;5.10;90.20;;;;;;5111223;28;20048;-93
2023/02/15 00:31:08;;;;;;;38.80;21.27;;;5.00;90.20;;;;;;5107186;28;20472;-90
2023/02/15 00:33:34;;;;;;;34.40;20.13;;;5.00;90.30;;;;;;5104189;28;20016;-93
2023/02/15 00:36:01;;;;;;;37.03;20.93;;;5.00;90.30;;;;;;5100866;28;20024;-94
2023/02/15 00:38:30;;;;;;;40.50;21.77;;;4.90;90.40;;;;;;5100733;28;20108;-92
2023/02/15 00:40:58;;;;;;;40.80;20.73;;;4.80;90.40;;;;;;5097723;28;20036;-91
2023/02/15 00:43:25;;;;;;;39.67;22.03;;;4.90;90.50;;;;;;5079799;28;20472;-90
2023/02/15 00:45:51;;;;;;;35.77;20.87;;;4.90;90.60;;;;;;5096220;28;20024;-88
2023/02/15 00:48:17;;;;;;;37.67;20.57;;;4.90;90.70;;;;;;5079385;28;20032;-91
2023/02/15 00:50:51;;;;;;;36.63;21.17;;;4.90;90.70;;;;;;5096456;28;20023;-91
2023/02/15 00:53:17;;;;;;;36.47;20.27;;;4.80;90.80;;;;;;5096040;28;20024;-90
2023/02/15 00:55:42;;;;;;;41.30;21.70;;;4.80;90.90;;;;;;5096492;28;20020;-89
2023/02/15 00:58:10;;;;;;;38.83;21.70;;;4.90;91.00;;;;;;5095759;28;20122;-90
2023/02/15 01:00:36;;;;;;;37.57;20.43;;;4.80;91.00;;;;;;5095824;28;20055;-89
2023/02/15 01:03:02;;;;;;;42.33;21.60;;;4.80;91.10;;;;;;5079181;28;20060;-89
2023/02/15 01:05:29;;;;;;;39.63;22.17;;;4.70;91.20;;;;;;5097251;28;20052;-91
2023/02/15 01:07:55;;;;;;;39.47;21.17;;;4.70;91.30;;;;;;5095623;28;20028;-90
2023/02/15 01:10:21;;;;;;;42.13;22.33;;;4.70;91.40;;;;;;5096119;28;20115;-89
2023/02/15 01:13:07;;;;;;;41.60;22.93;;;4.70;91.60;;;;;;5096927;28;20056;-90
2023/02/15 01:15:35;;;;;;;38.70;21.70;;;4.70;91.70;;;;;;5096591;28;20492;-93
2023/02/15 01:18:01;;;;;;;41.77;22.60;;;4.70;91.80;;;;;;5097945;28;20378;-91
2023/02/15 01:20:28;;;;;;;39.93;22.00;;;4.80;91.90;;;;;;5080922;28;20020;-93
2023/02/15 01:22:55;;;;;;;36.03;20.87;;;4.70;92.20;;;;;;5084849;28;20036;-90
2023/02/15 01:25:23;;;;;;;40.67;21.90;;;4.70;92.00;;;;;;5106951;28;20032;-93
2023/02/15 01:27:52;;;;;;;40.10;22.50;;;4.70;92.10;;;;;;5086505;28;20056;-92
2023/02/15 01:30:18;;;;;;;41.20;22.73;;;4.70;92.20;;;;;;5098293;28;20039;-94
2023/02/15 01:32:44;;;;;;;45.73;23.37;;;4.70;92.30;;;;;;5063743;28;20021;-94
2023/02/15 01:35:10;;;;;;;39.50;22.37;;;4.70;92.30;;;;;;5096962;28;20020;-90
2023/02/15 01:37:36;;;;;;;43.50;22.70;;;4.70;92.40;;;;;;5096823;28;20024;-96
2023/02/15 01:40:08;;;;;;;39.33;22.80;;;4.60;92.50;;;;;;5083536;28;20111;-95
2023/02/15 01:42:34;;;;;;;41.73;21.87;;;4.60;92.60;;;;;;5102550;28;20082;-96
2023/02/15 01:45:17;;;;;;;43.30;22.70;;;4.60;92.70;;;;;;5097917;28;20035;-95
2023/02/15 01:47:47;;;;;;;42.33;22.00;;;4.60;92.80;;;;;;5097853;28;20093;-94
2023/02/15 01:50:26;;;;;;;39.87;22.43;;;4.60;92.80;;;;;;5098703;28;20465;-96
2023/02/15 01:53:30;;;;;;;42.00;21.93;;;4.60;92.90;;;;;;5101467;28;20043;-94
2023/02/15 01:56:25;;;;;;;36.65;20.98;;;4.60;93.10;;;;;;5095758;28;20078;-94
2023/02/15 01:58:55;;;;;;;38.37;19.73;;;4.60;93.10;;;;;;5095564;28;20021;-95
2023/02/15 02:01:21;;;;;;;38.17;20.30;;;4.60;93.20;;;;;;5096001;28;20043;-94
2023/02/15 02:03:53;;;;;;;36.30;20.77;;;4.60;93.20;;;;;;5079864;28;20028;-93
2023/02/15 02:06:20;;;;;;;37.37;20.10;;;4.50;93.20;;;;;;5098313;28;20384;-93
2023/02/15 02:08:47;;;;;;;38.60;21.07;;;4.50;93.30;;;;;;5093321;28;20024;-86
2023/02/15 02:11:14;;;;;;;37.47;19.53;;;4.50;93.40;;;;;;5092522;28;20059;-91
2023/02/15 02:13:42;;;;;;;37.17;20.03;;;4.50;93.50;;;;;;5106193;28;20059;-94
2023/02/15 02:16:20;;;;;;;38.73;21.63;;;4.50;93.60;;;;;;5095929;28;20387;-94
2023/02/15 02:18:59;;;;;;;36.53;18.97;;;4.50;93.70;;;;;;5095520;28;20476;-93
2023/02/15 02:22:05;;;;;;;38.33;20.60;;;4.50;93.80;;;;;;5095713;28;20047;-93
2023/02/15 02:24:53;;;;;;;33.20;18.70;;;4.50;93.80;;;;;;5095555;28;20024;-95
2023/02/15 02:27:41;;;;;;;33.73;18.60;;;4.50;93.90;;;;;;5095142;28;20105;-94
2023/02/15 02:30:21;;;;;;;34.83;19.30;;;4.50;94.00;;;;;;5095620;28;20031;-94
2023/02/15 02:33:09;;;;;;;36.23;20.10;;;4.40;93.90;;;;;;5096198;28;20020;-94
2023/02/15 02:35:34;;;;;;;33.10;18.83;;;4.50;94.00;;;;;;5095930;28;20025;-94
2023/02/15 02:38:26;;;;;;;37.17;20.30;;;4.40;94.00;;;;;;5102541;28;20038;-88
2023/02/15 02:41:21;;;;;;;34.03;18.40;;;4.40;94.00;;;;;;5101350;28;20032;-92
2023/02/15 02:44:16;;;;;;;36.63;19.10;;;4.30;94.10;;;;;;5081955;28;20058;-93
2023/02/15 02:47:10;;;;;;;35.10;18.50;;;4.30;94.10;;;;;;5105884;28;20024;-93
2023/02/15 02:49:39;;;;;;;25.33;13.60;;;4.30;94.20;;;;;;5100065;28;20372;-91
2023/02/15 02:52:25;;;;;;;35.77;19.23;;;4.30;94.30;;;;;;5096780;28;20012;-90
2023/02/15 02:54:52;;;;;;;33.87;18.63;;;4.30;94.30;;;;;;5097586;28;20047;-91
2023/02/15 02:57:20;;;;;;;33.30;18.33;;;4.30;94.70;;;;;;5078771;28;20024;-91
2023/02/15 02:59:48;;;;;;;36.10;20.23;;;4.20;94.70;;;;;;5094256;28;20024;-91
2023/02/15 03:02:18;;;;;;;43.07;21.03;;;4.20;94.50;;;;;;5095737;28;20039;-90
2023/02/15 03:04:49;;;;;;;37.80;19.87;;;4.20;94.50;;;;;;5094032;28;20115;-90
2023/02/15 03:07:25;;;;;;;39.83;20.50;;;4.10;94.60;;;;;;5093382;28;20031;-89
2023/02/15 03:09:57;;;;;;;40.33;21.83;;;4.10;94.70;;;;;;5077534;28;20024;-91
2023/02/15 03:12:33;;;;;;;36.23;19.23;;;4.20;94.80;;;;;;5094545;28;20555;-90
2023/02/15 03:15:07;;;;;;;38.37;19.97;;;4.20;94.80;;;;;;5093764;28;20376;-90
2023/02/15 03:17:35;;;;;;;29.42;14.23;;;4.10;94.80;;;;;;5093712;28;20107;-91
2023/02/15 03:20:13;;;;;;;34.57;18.37;;;4.10;94.90;;;;;;5093564;28;20024;-92
2023/02/15 03:22:48;;;;;;;34.97;18.77;;;4.10;94.90;;;;;;5093473;28;20045;-92
2023/02/15 03:25:22;;;;;;;37.30;19.87;;;4.10;95.00;;;;;;5094282;28;20024;-92
2023/02/15 03:27:49;;;;;;;;;;;4.00;95.10;;;;;;5093877;28;20043;-92
2023/02/15 03:30:18;;;;;;;31.67;17.73;;;4.10;95.10;;;;;;5094456;28;19914;-91
2023/02/15 03:32:46;;;;;;;38.20;20.87;;;4.00;95.00;;;;;;5094969;28;20048;-95
2023/02/15 03:35:11;;;;;;;35.90;19.63;;;4.00;95.00;;;;;;5096130;28;20024;-95
2023/02/15 03:38:01;;;;;;;34.80;18.83;;;3.90;95.30;;;;;;5063460;28;20029;-96
2023/02/15 03:43:40;;;;;;;34.43;18.30;;;3.90;95.20;;;;;;5098856;28;20123;-92
2023/02/15 03:46:41;;;;;;;33.73;18.27;;;3.90;95.30;;;;;;5097666;28;20050;-91
2023/02/15 03:49:18;;;;;;;34.07;18.40;;;3.90;95.30;;;;;;5093491;28;20494;-92
2023/02/15 03:51:48;;;;;;;36.90;19.00;;;3.80;95.30;;;;;;5097953;28;20115;-93
2023/02/15 04:02:42;;;;;;;35.33;19.07;;;3.80;95.50;;;;;;5085058;28;20097;-94
2023/02/15 04:05:08;;;;;;;36.10;19.70;;;3.70;95.50;;;;;;5097824;28;20464;-94
2023/02/15 04:07:33;;;;;;;37.60;19.67;;;3.70;95.50;;;;;;5065927;28;20053;-93
2023/02/15 04:12:43;;;;;;;40.10;19.02;;;3.70;95.60;;;;;;5086859;28;20039;-92
2023/02/15 04:17:57;;;;;;;36.67;17.83;;;3.70;95.80;;;;;;5085309;28;20039;-95
2023/02/15 04:25:51;;;;;;;36.92;19.50;;;3.70;95.90;;;;;;5090516;28;20404;-94
2023/02/15 04:28:17;;;;;;;36.07;19.30;;;3.60;95.90;;;;;;5092139;28;20061;-96
2023/02/15 04:30:43;;;;;;;31.50;17.23;;;3.60;95.90;;;;;;5066297;28;20067;-93
2023/02/15 04:33:08;;;;;;;35.57;19.07;;;3.60;96.00;;;;;;5060420;28;20040;-92
2023/02/15 04:35:34;;;;;;;32.23;18.00;;;3.50;96.00;;;;;;5075795;28;20031;-92
2023/02/15 04:38:00;;;;;;;36.47;20.43;;;3.50;96.10;;;;;;5097395;28;20032;-94
2023/02/15 04:40:25;;;;;;;37.40;19.70;;;3.50;96.10;;;;;;5097255;28;20031;-92
2023/02/15 04:42:51;;;;;;;36.03;20.03;;;3.50;96.20;;;;;;5080311;28;20121;-92
2023/02/15 04:45:17;;;;;;;35.67;18.80;;;3.50;96.30;;;;;;5097160;28;20061;-92
2023/02/15 04:47:43;;;;;;;34.10;19.20;;;3.50;96.30;;;;;;5080674;28;20031;-93
2023/02/15 04:50:09;;;;;;;31.90;17.50;;;3.40;96.30;;;;;;5083006;28;20044;-90
2023/02/15 04:52:36;;;;;;;35.30;18.03;;;3.40;96.40;;;;;;5113600;28;20028;-91
2023/02/15 04:55:01;;;;;;;32.20;18.23;;;3.50;96.40;;;;;;5099749;28;20044;-92
2023/02/15 04:57:27;;;;;;;38.40;19.77;;;3.40;96.50;;;;;;5093597;28;20031;-92
2023/02/15 04:59:53;;;;;;;36.80;19.00;;;3.40;96.50;;;;;;5094156;22;20061;-77
2023/02/15 05:02:18;;;;;;;35.57;19.40;;;3.40;96.60;;;;;;5035516;28;20068;-77
2023/02/15 05:04:44;;;;;;;35.87;19.53;;;3.30;96.70;;;;;;5035623;28;20025;-77
2023/02/15 05:07:09;;;;;;;33.57;18.23;;;3.30;96.70;;;;;;5034516;28;20029;-77
2023/02/15 05:09:35;;;;;;;31.83;18.27;;;3.30;96.80;;;;;;5017899;28;20049;-77
2023/02/15 05:12:01;;;;;;;37.37;19.60;;;3.40;96.90;;;;;;5035521;28;20022;-77
2023/02/15 05:14:27;;;;;;;33.53;18.70;;;3.30;96.90;;;;;;5001287;28;20371;-77
2023/02/15 05:16:53;;;;;;;34.23;18.53;;;3.30;96.90;;;;;;5034161;28;20022;-77
2023/02/15 05:19:19;;;;;;;36.57;19.13;;;3.30;96.90;;;;;;5018137;28;20504;-78
2023/02/15 05:21:45;;;;;;;32.10;18.47;;;3.40;97.00;;;;;;5034106;28;20030;-77
2023/02/15 05:29:39;;;;;;;36.83;18.58;;;3.20;97.10;;;;;;5035434;28;20036;-78
2023/02/15 05:32:05;;;;;;;34.23;17.97;;;3.10;97.00;;;;;;5033831;28;20389;-77
2023/02/15 05:34:30;;;;;;;35.90;19.50;;;3.10;97.10;;;;;;5017407;28;20072;-77
2023/02/15 05:36:56;;;;;;;34.23;19.00;;;3.10;97.10;;;;;;5035088;28;20029;-76
2023/02/15 05:39:22;;;;;;;35.00;17.67;;;3.10;97.10;;;;;;5033751;28;20044;-77
2023/02/15 05:41:47;;;;;;;40.27;18.87;;;3.00;97.10;;;;;;5034917;28;20359;-76
2023/02/15 05:44:13;;;;;;;35.30;18.47;;;3.10;97.20;;;;;;5017228;28;20022;-76
2023/02/15 05:46:38;;;;;;;39.43;19.90;;;3.10;97.30;;;;;;5000821;28;20056;-76
2023/02/15 05:49:04;;;;;;;39.33;19.90;;;3.20;97.30;;;;;;5032967;28;20063;-76
2023/02/15 05:51:30;;;;;;;36.47;19.60;;;3.00;97.30;;;;;;5017058;28;20026;-77
2023/02/15 05:53:55;;;;;;;40.73;19.33;;;3.00;97.40;;;;;;5017355;28;20390;-83
2023/02/15 05:56:21;;;;;;;38.03;19.93;;;3.00;97.40;;;;;;5029166;28;20414;-82
2023/02/15 05:58:47;;;;;;;38.23;20.17;;;3.00;97.50;;;;;;5008173;28;20370;-83
2023/02/15 06:01:18;;;;;;;40.10;19.33;;;3.00;97.50;;;;;;5016558;28;20042;-83
2023/02/15 06:03:45;;;;;;;36.70;18.43;;;3.00;97.60;;;;;;5032804;28;20014;-83
2023/02/15 06:06:11;;;;;;;35.57;18.17;;;3.00;97.60;;;;;;5032545;28;20051;-82
2023/02/15 06:08:37;;;;;;;37.13;18.07;;;3.00;97.60;;;;;;5032598;28;20025;-83
2023/02/15 06:11:04;;;;;;;37.47;19.03;;;2.90;97.60;;;;;;5031721;28;20155;-83
2023/02/15 06:13:29;;;;;;;37.83;18.77;;;3.00;97.70;;;;;;5016747;28;20025;-83
2023/02/15 06:15:55;;;;;;;37.13;18.70;;;2.90;97.70;;;;;;5034329;28;20040;-82
2023/02/15 06:18:21;;;;;;;37.53;18.40;;;2.90;97.70;;;;;;5033141;28;20125;-83
2023/02/15 06:20:47;;;;;;;39.90;19.03;;;3.00;97.70;;;;;;5033028;28;20111;-83
2023/02/15 06:23:13;;;;;;;36.03;20.37;;;2.90;97.80;;;;;;5033042;28;20104;-82
2023/02/15 06:25:39;;;;;;;36.93;18.80;;;2.80;97.80;;;;;;5033014;28;20045;-82
2023/02/15 06:28:04;;;;;;;36.47;19.40;;;2.80;97.80;;;;;;5016650;28;20116;-83
2023/02/15 06:30:30;;;;;;;39.90;19.80;;;2.80;97.90;;;;;;5016273;28;20480;-83
2023/02/15 06:32:56;;;;;;;39.47;19.90;;;2.80;97.90;;;;;;5016322;28;20021;-83
2023/02/15 06:35:22;;;;;;;36.20;18.43;;;2.80;98.00;;;;;;5032721;28;20084;-83
2023/02/15 06:37:48;;;;;;;38.37;19.97;;;2.80;98.10;;;;;;5032802;28;20024;-83
2023/02/15 06:40:14;;;;;;;38.73;19.60;;;2.80;98.00;;;;;;5032606;28;20029;-83
2023/02/15 06:42:41;;;;;;;34.40;19.67;;;2.80;98.30;;;;;;5016320;28;20053;-82
2023/02/15 06:45:07;;;;;;;36.57;19.50;;;2.80;98.00;;;;;;5016052;28;20025;-76
2023/02/15 06:47:33;;;;;;;35.93;19.13;;;2.70;98.00;;;;;;5032248;28;20033;-77
2023/02/15 06:49:59;;;;;;;35.63;18.47;;;2.80;98.10;;;;;;5015595;28;20032;-76
2023/02/15 06:52:24;;;;;;;39.47;18.87;;;2.70;98.10;;;;;;4995636;28;20029;-76
2023/02/15 06:54:50;;;;;;;39.40;20.17;;;2.70;98.20;;;;;;5029921;28;20099;-76
2023/02/15 06:57:16;;;;;;;44.70;20.27;;;2.70;98.20;;;;;;5032621;28;20394;-76
2023/02/15 06:59:41;;;;;;;36.50;18.83;;;2.70;98.20;;;;;;5015874;28;20026;-77
2023/02/15 07:02:09;;;;;;;36.47;19.77;;;2.70;98.30;;;;;;5032206;28;20033;-77
2023/02/15 07:04:34;;;;;;;37.67;19.83;;;2.70;98.30;;;;;;5032435;28;20026;-77
2023/02/15 07:07:00;;;;;;;39.20;18.83;;;2.70;98.30;;;;;;5015271;28;20456;-76
2023/02/15 07:09:26;;;;;;;44.23;20.53;;;2.70;98.40;;;;;;4999700;28;20025;-76
2023/02/15 07:14:35;;;;;;;36.92;20.45;;;2.70;98.50;;;;;;5026719;28;20060;-76
2023/02/15 07:17:01;;;;;;;41.67;21.07;;;2.70;98.60;;;;;;5032216;28;20505;-83
2023/02/15 07:19:26;;;;;;;40.30;20.73;;;2.70;98.70;;;;;;5032486;28;20068;-84
2023/02/15 07:21:52;;;;;;;46.23;20.10;;;2.70;98.70;;;;;;5016290;28;20045;-83
2023/02/15 07:24:18;;;;;;;37.90;19.57;;;2.70;98.70;;;;;;5033196;28;20041;-83
2023/02/15 07:26:43;;;;;;;46.43;22.07;;;2.80;98.90;;;;;;5022359;28;20025;-83
2023/02/15 07:29:09;;;;;;;39.27;21.23;;;2.80;98.90;;;;;;5021313;28;20052;-83
2023/02/15 07:31:35;;;;;;;38.37;20.33;;;2.80;98.90;;;;;;5033107;28;20037;-83
2023/02/15 07:34:00;;;;;;;40.10;20.13;;;2.80;99.00;;;;;;5015885;28;20083;-83
2023/02/15 07:36:26;;;;;;;38.73;20.33;;;2.90;99.10;;;;;;5030683;28;20037;-83
2023/02/15 07:38:51;;;;;;;37.10;19.03;;;2.90;99.20;;;;;;4998348;28;20037;-85
2023/02/15 07:41:18;;;;;;;43.10;22.20;;;3.00;99.20;;;;;;5013036;28;20034;-85
2023/02/15 07:43:45;;;;;;;39.63;21.77;;;3.00;99.30;;;;;;5027707;28;20458;-86
2023/02/15 07:46:14;;;;;;;41.00;21.43;;;3.10;99.40;;;;;;5015968;28;20651;-83
2023/02/15 07:48:41;;;;;;;39.40;21.37;;;3.00;99.30;;;;;;5031589;28;20036;-83
2023/02/15 07:51:08;;;;;;;43.27;22.73;;;3.20;99.40;;;;;;5031830;28;20171;-84
2023/02/15 07:53:35;;;;;;;38.90;20.50;;;3.20;99.30;;;;;;5032051;28;20040;-84
2023/02/15 07:56:06;;;;;;;35.40;20.47;;;3.30;99.30;;;;;;5010123;28;20473;-86
2023/02/15 07:58:51;;;;;;;43.67;20.70;;;3.30;99.30;;;;;;5032533;28;20052;-85
2023/02/15 08:01:18;;;;;;;41.90;20.83;;;3.40;99.30;;;;;;5030969;28;20053;-86
2023/02/15 08:03:43;;;;;;;38.80;20.43;;;3.50;99.30;;;;;;5031902;28;20052;-84
2023/02/15 08:06:11;;;;;;;41.30;22.47;;;3.50;99.20;;;;;;5015286;28;20474;-84
2023/02/15 08:08:37;;;;;;;43.50;21.60;;;3.50;99.20;;;;;;5014262;28;20025;-84
2023/02/15 08:14:02;;;;;;;40.90;22.53;;;3.60;99.30;;;;;;5029716;28;20048;-85
2023/02/15 08:16:38;;;;;;;35.77;20.33;;;3.70;99.30;;;;;;5033030;28;20390;-84
2023/02/15 08:19:16;;;;;;;39.10;21.37;;;3.70;99.30;;;;;;5033185;28;20053;-85
2023/02/15 08:21:45;;;;;;;38.73;20.67;;;3.80;99.30;;;;;;5031971;28;20033;-84
2023/02/15 08:24:12;;;;;;;40.40;22.57;;;3.90;99.30;;;;;;5033112;28;20112;-84
2023/02/15 08:26:39;;;;;;;38.80;21.70;;;3.90;99.20;;;;;;5032769;28;20066;-86
2023/02/15 08:29:06;;;;;;;39.40;22.33;;;3.90;99.20;;;;;;5019630;28;20025;-85
2023/02/15 08:31:33;;;;;;;43.17;23.00;;;4.00;99.20;;;;;;5020224;28;20120;-85
2023/02/15 08:33:58;;;;;;;39.57;22.03;;;4.10;99.30;;;;;;5007827;28;20029;-78
2023/02/15 08:36:28;;;;;;;40.20;22.00;;;4.10;99.30;;;;;;5034875;28;20026;-79
2023/02/15 08:38:54;;;;;;;44.80;23.87;;;4.10;99.30;;;;;;5033242;28;20039;-78
2023/02/15 08:41:23;;;;;;;42.17;22.40;;;4.10;99.30;;;;;;5017835;28;20389;-79
2023/02/15 08:43:52;;;;;;;37.07;21.70;;;4.30;99.40;;;;;;5018440;28;20028;-79
2023/02/15 08:46:18;;;;;;;44.27;22.30;;;4.30;99.40;;;;;;5015185;28;20494;-79
2023/02/15 08:48:44;;;;;;;44.87;22.70;;;4.30;99.40;;;;;;5015150;28;20060;-78
2023/02/15 08:51:18;;;;;;;38.97;22.50;;;4.50;99.50;;;;;;5014891;28;20034;-78
2023/02/15 08:53:50;;;;;;;45.80;24.27;;;4.60;99.50;;;;;;5014788;28;20076;-76
2023/02/15 08:56:17;;;;;;;43.97;22.43;;;4.80;99.60;;;;;;5020919;28;20037;-78
2023/02/15 08:58:43;;;;;;;40.80;22.03;;;4.80;99.50;;;;;;5035277;28;20056;-77
2023/02/15 09:01:17;;;;;;;38.27;21.47;;;4.80;99.50;;;;;;4983814;28;20049;-78
2023/02/15 09:03:44;;;;;;;41.63;22.93;;;4.90;99.50;;;;;;5014942;28;20014;-78
2023/02/15 09:06:11;;;;;;;44.27;22.70;;;5.10;99.50;;;;;;4998794;28;20064;-77
2023/02/15 09:08:37;;;;;;;39.97;23.43;;;5.10;99.50;;;;;;4999020;28;20493;-78
2023/02/15 09:11:10;;;;;;;39.13;22.50;;;5.30;99.60;;;;;;5021681;28;20063;-77
2023/02/15 09:13:37;;;;;;;44.17;23.33;;;5.30;99.60;;;;;;5016023;28;20498;-78
2023/02/15 09:16:05;;;;;;;38.43;21.90;;;5.40;99.60;;;;;;5014953;28;20031;-83
2023/02/15 09:18:35;;;;;;;38.87;21.67;;;5.50;99.60;;;;;;5015058;28;20015;-83
2023/02/15 09:21:14;;;;;;;41.33;24.23;;;5.70;99.50;;;;;;5014580;28;20084;-83
2023/02/15 09:23:41;;;;;;;38.80;23.07;;;5.80;99.50;;;;;;5015062;28;20076;-83
2023/02/15 09:26:10;;;;;;;44.57;24.20;;;5.90;99.30;;;;;;4998286;28;20466;-83
2023/02/15 09:28:36;;;;;;;41.97;23.33;;;6.00;99.20;;;;;;5027051;28;20029;-83
2023/02/15 09:31:10;;;;;;;41.13;23.27;;;6.10;99.00;;;;;;5034478;28;20770;-82
2023/02/15 09:33:37;;;;;;;36.57;22.20;;;6.20;98.90;;;;;;5033983;28;20022;-82
2023/02/15 09:36:04;;;;;;;40.27;23.50;;;6.30;98.80;;;;;;5017469;28;20037;-82
2023/02/15 09:38:30;;;;;;;36.83;22.20;;;6.40;98.70;;;;;;5032514;28;20021;-83
2023/02/15 09:41:33;;;;;;;40.13;22.77;;;6.50;98.60;;;;;;5033586;28;20482;-83
2023/02/15 09:44:33;;;;;;;38.40;21.87;;;6.60;98.30;;;;;;5033422;28;20076;-82
2023/02/15 09:47:36;;;;;;;43.00;22.40;;;6.70;98.10;;;;;;5036934;28;20081;-85
2023/02/15 09:50:50;;;;;;;37.63;22.77;;;6.80;98.00;;;;;;5034379;28;20112;-85
2023/02/15 09:53:33;;;;;;;39.67;23.43;;;7.00;97.80;;;;;;5042532;28;20037;-85
2023/02/15 09:56:04;;;;;;;37.67;21.63;;;7.10;97.50;;;;;;5022882;28;20140;-85
2023/02/15 09:58:51;;;;;;;39.87;22.53;;;7.30;97.50;;;;;;5033711;28;20037;-85
2023/02/15 10:01:37;;;;;;;36.70;21.13;;;7.50;97.50;;;;;;5033340;28;20045;-85
2023/02/15 10:04:47;;;;;;;37.03;22.00;;;7.70;97.40;;;;;;5029905;28;20026;-85
2023/02/15 10:07:40;;;;;;;35.07;20.60;;;8.00;97.50;;;;;;5009990;28;20478;-85
2023/02/15 10:10:29;;;;;;;34.13;19.57;;;8.50;97.40;;;;;;5011012;28;20095;-86
2023/02/15 10:13:03;;;;;;;29.80;19.53;;;8.90;97.80;;;;;;5014765;28;20045;-85
2023/02/15 10:15:39;;;;;;;29.53;18.83;;;9.40;98.40;;;;;;5030132;28;20041;-85
2023/02/15 10:18:20;;;;;;;29.63;17.42;;;10.00;98.70;;;;;;5033235;28;20035;-85
2023/02/15 10:21:12;;;;;;;30.67;17.77;;;10.60;98.90;;;;;;5033130;28;20033;-85
2023/02/15 10:23:47;;;;;;;25.75;14.95;;;11.50;98.50;;;;;;5023499;28;20049;-85
2023/02/15 10:26:20;;;;;;;25.25;16.17;;;12.10;98.90;;;;;;5033113;28;20049;-85
2023/02/15 10:28:49;;;;;;;24.52;15.18;;;12.80;98.40;;;;;;5032933;28;20508;-85
2023/02/15 10:31:43;;;;;;;23.98;15.45;;;13.60;97.70;;;;;;5032975;28;20028;-86
2023/02/15 10:34:17;;;;;;;23.08;14.88;;;14.30;95.70;;;;;;5032793;28;20044;-83
2023/02/15 10:37:00;;;;;;;21.33;14.30;;;15.00;94.90;;;;;;5032629;28;20026;-83
2023/02/15 10:40:22;;;;;;;20.38;12.23;;;15.70;92.70;;;;;;5033742;28;20029;-82
2023/02/15 10:42:53;;;;;;;20.42;14.70;;;16.30;90.80;;;;;;5014908;28;20075;-83
2023/02/15 10:45:30;;;;;;;23.10;14.40;;;16.80;82.60;;;;;;5033415;28;20040;-82
2023/02/15 10:48:22;;;;;;;23.05;15.02;;;16.90;78.20;;;;;;5032403;28;20041;-83
2023/02/15 10:50:55;;;;;;;19.08;13.05;;;17.30;73.80;;;;;;5031758;28;20028;-83
2023/02/15 10:53:49;;;;;;;21.03;14.40;;;17.50;73.40;;;;;;5032407;28;20481;-82
2023/02/15 10:56:37;;;;;;;21.65;13.70;;;17.70;70.00;;;;;;5033587;28;20036;-83
2023/02/15 10:59:39;;;;;;;19.77;13.60;;;18.00;68.20;;;;;;5032280;28;20029;-83
2023/02/15 11:02:31;;;;;;;20.25;13.32;;;18.40;65.60;;;;;;5031928;28;20136;-83
2023/02/15 11:05:15;;;;;;;19.88;13.27;;;18.90;64.00;;;;;;5033336;28;20033;-84
2023/02/15 11:07:44;;;;;;;18.85;13.05;;;19.40;63.20;;;;;;5032270;28;20029;-83
2023/02/15 11:10:18;;;;;;;20.90;14.63;;;19.60;61.40;;;;;;5031918;28;20525;-83
2023/02/15 11:12:47;;;;;;;19.33;14.60;;;19.90;58.70;;;;;;5032301;28;20106;-83
2023/02/15 11:15:19;;;;;;;27.02;15.07;;;19.90;57.00;;;;;;5031879;28;20152;-83
2023/02/15 11:17:51;;;;;;;21.30;15.43;;;20.10;56.50;;;;;;5033847;28;20064;-81
2023/02/15 11:20:21;;;;;;;19.60;14.93;;;20.30;55.00;;;;;;5033595;28;20108;-81
2023/02/15 11:22:50;;;;;;;18.45;13.68;;;20.60;54.60;;;;;;5031811;28;20029;-81
2023/02/15 11:25:32;;;;;;;18.10;13.48;;;20.90;54.20;;;;;;5031819;28;20018;-81
2023/02/15 11:28:02;;;;;;;20.50;13.75;;;21.10;53.30;;;;;;5031551;28;20025;-81
2023/02/15 11:30:44;;;;;;;23.60;16.25;;;21.30;52.70;;;;;;5032015;28;20063;-83
2023/02/15 11:33:22;;;;;;;21.67;14.30;;;21.60;51.60;;;;;;5031991;28;20026;-83
2023/02/15 11:35:53;;;;;;;22.83;15.32;;;22.10;51.30;;;;;;5031700;28;20037;-83
2023/02/15 11:38:24;;;;;;;18.77;14.05;;;22.40;49.80;;;;;;5032955;28;20029;-83
2023/02/15 11:41:14;;;;;;;20.73;14.40;;;22.60;49.30;;;;;;5031823;28;20397;-81
2023/02/15 11:43:53;;;;;;;19.38;14.98;;;22.80;48.20;;;;;;5031847;28;20022;-81
2023/02/15 11:46:20;;;;;;;20.30;15.60;;;23.00;48.40;;;;;;5033041;28;20470;-83
2023/02/15 11:48:46;;;;;;;20.45;15.02;;;23.20;47.70;;;;;;5031843;28;20029;-83
2023/02/15 11:51:15;;;;;;;21.58;14.73;;;23.40;46.90;;;;;;5015259;28;20041;-83
2023/02/15 11:53:43;;;;;;;18.70;14.32;;;23.60;46.30;;;;;;5032850;28;20018;-81
2023/02/15 11:56:23;;;;;;;19.52;15.23;;;23.60;45.50;;;;;;5031837;28;20113;-81
2023/02/15 11:58:58;;;;;;;21.67;15.35;;;23.20;45.20;;;;;;5031608;28;20022;-84
2023/02/15 12:01:44;;;;;;;23.08;16.35;;;23.10;44.60;;;;;;5033923;28;20443;-83
2023/02/15 12:04:22;;;;;;;21.75;17.10;;;22.80;44.50;;;;;;5035702;28;20021;-84
2023/02/15 12:07:15;;;;;;;22.27;15.98;;;22.60;44.40;;;;;;5035572;28;20022;-84
2023/02/15 12:09:47;;;;;;;24.98;17.23;;;22.50;44.60;;;;;;5030209;28;20028;-84
2023/02/15 12:12:26;;;;;;;22.73;15.98;;;22.40;44.50;;;;;;5035561;28;20037;-85
2023/02/15 12:14:57;;;;;;;22.65;16.52;;;22.50;44.60;;;;;;5035455;28;20551;-84
2023/02/15 12:17:32;;;;;;;23.90;16.25;;;22.50;44.80;;;;;;5017225;28;20057;-82
2023/02/15 12:20:07;;;;;;;23.42;17.30;;;22.60;44.80;;;;;;5035108;28;20439;-84
2023/02/15 12:22:36;;;;;;;20.45;15.75;;;22.90;44.50;;;;;;5035086;28;20032;-82
2023/02/15 12:25:19;;;;;;;23.92;16.85;;;22.90;44.40;;;;;;5034284;28;20025;-82
2023/02/15 12:27:46;;;;;;;20.30;14.38;;;23.00;44.20;;;;;;5035190;28;20040;-82
2023/02/15 12:30:30;;;;;;;21.17;15.45;;;23.30;44.20;;;;;;5036353;28;20040;-82
2023/02/15 12:33:05;;;;;;;21.95;15.55;;;23.40;43.80;;;;;;5034936;28;20026;-83
2023/02/15 12:35:33;;;;;;;21.23;15.68;;;23.50;43.30;;;;;;5036184;28;20060;-83
2023/02/15 12:38:27;;;;;;;21.13;15.20;;;23.50;43.20;;;;;;5036234;28;20025;-82
2023/02/15 12:41:04;;;;;;;22.25;15.18;;;23.60;43.00;;;;;;5036048;28;20104;-81
2023/02/15 12:43:35;;;;;;;23.75;17.10;;;23.80;43.00;;;;;;5035043;28;20053;-83
2023/02/15 12:46:21;;;;;;;21.70;15.15;;;24.10;42.80;;;;;;5036151;28;20079;-83
2023/02/15 12:48:47;;;;;;;21.65;16.80;;;24.40;42.40;;;;;;5035721;28;20021;-83
2023/02/15 12:51:15;;;;;;;22.75;15.73;;;24.60;42.30;;;;;;5035935;28;20377;-83
2023/02/15 12:53:41;;;;;;;23.10;15.70;;;24.80;42.10;;;;;;5035047;28;20018;-83
2023/02/15 12:56:09;;;;;;;21.48;16.38;;;25.10;41.90;;;;;;5018043;28;20021;-82
2023/02/15 12:58:37;;;;;;;22.05;16.50;;;25.30;41.30;;;;;;5035908;28;20113;-82
2023/02/15 13:01:08;;;;;;;20.92;16.35;;;25.30;40.50;;;;;;5035563;28;20041;-82
2023/02/15 13:03:37;;;;;;;21.52;17.00;;;25.20;41.20;;;;;;5034330;28;20060;-82
2023/02/15 13:06:07;;;;;;;18.67;15.20;;;25.30;40.60;;;;;;5034332;28;20026;-82
2023/02/15 13:08:38;;;;;;;20.77;16.25;;;25.40;40.30;;;;;;5034865;28;20026;-82
2023/02/15 13:11:10;;;;;;;23.83;17.58;;;25.60;40.30;;;;;;5034283;28;20021;-83
2023/02/15 13:13:50;;;;;;;23.60;17.33;;;25.70;39.70;;;;;;5033389;28;20021;-82
2023/02/15 13:16:19;;;;;;;24.17;16.90;;;25.70;39.30;;;;;;5033961;28;20021;-82
2023/02/15 13:18:46;;;;;;;22.38;16.73;;;25.40;39.30;;;;;;5034562;28;20076;-83
2023/02/15 13:21:23;;;;;;;23.40;16.90;;;25.00;39.50;;;;;;5034431;28;20381;-82
2023/02/15 13:24:25;;;;;;;26.55;19.15;;;24.80;39.80;;;;;;5034199;28;20033;-82
2023/02/15 13:26:54;;;;;;;29.65;19.83;;;24.40;39.90;;;;;;5030090;28;20029;-82
2023/02/15 13:29:33;;;;;;;26.23;18.13;;;23.90;40.00;;;;;;5035046;28;20498;-82
2023/02/15 13:32:20;;;;;;;24.83;19.52;;;23.50;40.40;;;;;;5034060;28;20034;-82
2023/02/15 13:34:46;;;;;;;27.73;18.92;;;23.20;40.90;;;;;;5034256;28;20017;-82